Indian Bulker — 3EYO6 — position and weather

sailwx.info

Track history (hours):
 
Tides and Currents Weather Stations Pressure Air Temp Water Temp Dewpoint Dewpoint Depression Visibility Wind Speed Wind Dir Waves Ship Positions

Indian Bulker

Last reported at 2018-May-18 10:04 UTC. Time now 2018-May-20 17:45 UTC.
Position N 30°03' W 090°36'.

Length 180 m; draft 10 m.

Type: Ship. MMSI: 372129000.

Date/timePositionNaut miles runAvg speedWind from/ knotsBaromVisibWave heightAir tempDewpointWater temp
2018-May-18 10:04N 30°03' W 090°36'0 0.0
2018-May-18 09:58N 30°03' W 090°36'0 0.0
2018-May-17 12:49N 30°03' W 090°36'0 0.0
2018-May-17 07:01N 30°03' W 090°36'0 0.0
2018-May-17 06:55N 30°03' W 090°36'0 0.0
2018-May-17 05:30N 30°03' W 090°36'3 5.3
2018-May-17 04:57N 30°03' W 090°33'4 8.4
2018-May-17 04:28N 30°02' W 090°28'3 7.4
2018-May-17 04:00N 29°60' W 090°26'3 6.3
2018-May-17 03:30N 29°57' W 090°24'33 1.1
2018-May-15 21:57N 29°37' W 089°54'  
2018-May-11 18:08N 09°35' W 079°57'214.3
2018-May-11 18:00N 09°33' W 079°56'713.6
2018-May-11 17:30N 09°27' W 079°55'611.3
2018-May-11 17:00N 09°21' W 079°55'4 8.6
2018-May-11 16:30N 09°17' W 079°55'0 0.3
2018-May-11 16:00N 09°17' W 079°55'0 0.4
2018-May-11 15:30N 09°17' W 079°55'0 0.5
2018-May-11 15:00N 09°16' W 079°55'0 0.6
2018-May-11 14:30N 09°16' W 079°55'1 1.4
2018-May-11 14:00N 09°15' W 079°55'5 8.6
2018-May-11 13:28N 09°11' W 079°53'  
Track history (hours):
 
Tides and Currents Weather Stations Pressure Air Temp Water Temp Dewpoint Dewpoint Depression Visibility Wind Speed Wind Dir Waves Ship Positions

Indian Bulker

Last reported at 2018-May-18 10:04 UTC. Time now 2018-May-20 17:45 UTC.
Position N 30°03' W 090°36'.

Length 180 m; draft 10 m.

Type: Ship. MMSI: 372129000.

Date/timePositionNaut miles runAvg speedWind from/ knotsBaromVisibWave heightAir tempDewpointWater temp
2018-May-18 10:04N 30°03' W 090°36'0 0.0
2018-May-18 09:58N 30°03' W 090°36'0 0.0
2018-May-17 12:49N 30°03' W 090°36'0 0.0
2018-May-17 07:01N 30°03' W 090°36'0 0.0
2018-May-17 06:55N 30°03' W 090°36'0 0.0
2018-May-17 05:30N 30°03' W 090°36'3 5.3
2018-May-17 04:57N 30°03' W 090°33'4 8.4
2018-May-17 04:28N 30°02' W 090°28'3 7.4
2018-May-17 04:00N 29°60' W 090°26'3 6.3
2018-May-17 03:30N 29°57' W 090°24'33 1.1
2018-May-15 21:57N 29°37' W 089°54'  
2018-May-11 18:08N 09°35' W 079°57'214.3
2018-May-11 18:00N 09°33' W 079°56'713.6
2018-May-11 17:30N 09°27' W 079°55'611.3
2018-May-11 17:00N 09°21' W 079°55'4 8.6
2018-May-11 16:30N 09°17' W 079°55'0 0.3
2018-May-11 16:00N 09°17' W 079°55'0 0.4
2018-May-11 15:30N 09°17' W 079°55'0 0.5
2018-May-11 15:00N 09°16' W 079°55'0 0.6
2018-May-11 14:30N 09°16' W 079°55'1 1.4
2018-May-11 14:00N 09°15' W 079°55'5 8.6
2018-May-11 13:28N 09°11' W 079°53'  

Dump ship's entire track history